Terminal Aerodrome Forecast
Issued by NWS Melbourne, FL

Home | Current Version | Previous Version | Text Only | Print | Product List | Glossary On
Versions: 1 2 3 4 5 6 7 8 9 10 11 12
000
FTUS42 KMLB 011700
TAFDAB
TAF
KDAB 011740Z 0118/0218 16011KT P6SM SCT040 BKN250
      TEMPO 0118/0121 BKN040
     FM020000 17007KT P6SM SCT040 BKN200
     FM020600 19008KT P6SM SCT020 BKN120 WS010/20035KT
     FM021200 20012G18KT P6SM VCSH SCT025 BKN040=

USA.gov is the U.S. government's official web portal to all federal, state and local government web resources and services.